Time;durP1;ratioP1;P1;durP2;ratioP2;P2;SDS_P1;SDS_P2;PMS_P1;PMS_P2;Temp;Humidity;BMP_temperature;BMP_pressure;BME280_temperature;BME280_humidity;BME280_pressure;Samples;Min_cycle;Max_cycle;Signal;HPM_P1;HPM_P2
2023/12/20 06:55:22;;;;;;;14.57;5.30;;;;;;;;;;10537972;27;20380;-86
2023/12/20 07:00:22;;;;;;;;;;;;;;;;;;10536342;28;20059;-85
2023/12/20 07:05:24;;;;;;;6.78;2.65;;;;;;;;;;10537533;28;19904;-85
2023/12/20 07:10:25;;;;;;;8.43;3.80;;;;;;;;;;10544852;28;20036;-85
2023/12/20 07:15:26;;;;;;;7.97;3.40;;;;;;;;;;10549031;28;20160;-85
2023/12/20 07:20:27;;;;;;;6.47;3.22;;;;;;;;;;10547223;28;20537;-85
2023/12/20 07:25:30;;;;;;;18.35;7.63;;;;;;;;;;10545283;28;20032;-85
2023/12/20 07:30:31;;;;;;;5.78;2.67;;;;;;;;;;10545441;28;20115;-85
2023/12/20 07:35:32;;;;;;;10.60;4.90;;;;;;;;;;10545603;28;20048;-85
2023/12/20 07:40:33;;;;;;;26.50;10.00;;;;;;;;;;10545188;28;20137;-84
2023/12/20 07:45:34;;;;;;;11.73;4.03;;;;;;;;;;10546155;28;20024;-84
2023/12/20 07:50:35;;;;;;;;;;;;;;;;;;10544234;28;20028;-85
2023/12/20 07:55:36;;;;;;;12.18;5.28;;;;;;;;;;10521750;28;19912;-85
2023/12/20 08:00:38;;;;;;;;;;;;;;;;;;10515753;28;20020;-84
2023/12/20 08:05:42;;;;;;;;;;;;;;;;;;10510036;28;19962;-82
2023/12/20 08:10:43;;;;;;;6.90;2.90;;;;;;;;;;10510389;28;19951;-83
2023/12/20 08:15:44;;;;;;;10.80;4.90;;;;;;;;;;10515807;28;20090;-80
2023/12/20 08:20:45;;;;;;;7.38;3.20;;;;;;;;;;10510560;28;20121;-80
2023/12/20 08:25:46;;;;;;;7.22;3.05;;;;;;;;;;10511191;28;20025;-80
2023/12/20 08:30:47;;;;;;;;;;;;;;;;;;10514950;28;20028;-81
2023/12/20 08:35:48;;;;;;;12.20;3.45;;;;;;;;;;10521457;28;19904;-81
2023/12/20 08:40:56;;;;;;;9.18;3.60;;;;;;;;;;10532456;28;20044;-84
2023/12/20 08:46:21;;;;;;;8.45;2.63;;;;;;;;;;10543625;28;20029;-82
2023/12/20 08:57:07;;;;;;;9.00;3.13;;;;;;;;;;10535112;28;20089;-82
2023/12/20 09:02:12;;;;;;;;;;;;;;;;;;10545102;28;20036;-84
2023/12/20 09:07:23;;;;;;;10.38;3.33;;;;;;;;;;10536663;28;19905;-82
2023/12/20 09:12:24;;;;;;;8.13;3.28;;;;;;;;;;10515747;28;20059;-83
2023/12/20 09:17:25;;;;;;;9.60;3.13;;;;;;;;;;10518871;28;20021;-83
2023/12/20 09:22:26;;;;;;;;;;;;;;;;;;10515387;28;20485;-82
2023/12/20 09:27:27;;;;;;;9.73;4.43;;;;;;;;;;10515268;28;19904;-82
2023/12/20 09:32:29;;;;;;;9.43;4.40;;;;;;;;;;10511612;28;20064;-83
2023/12/20 09:37:30;;;;;;;9.30;3.85;;;;;;;;;;10513353;28;20424;-85
2023/12/20 09:42:31;;;;;;;;;;;;;;;;;;10515768;28;20059;-82
2023/12/20 09:47:34;;;;;;;7.78;2.80;;;;;;;;;;10510297;28;19911;-82
2023/12/20 09:52:37;;;;;;;9.55;2.50;;;;;;;;;;10511306;28;20058;-83
2023/12/20 09:57:38;;;;;;;9.20;3.50;;;;;;;;;;10512142;28;20107;-82
2023/12/20 10:02:41;;;;;;;10.70;2.80;;;;;;;;;;10509002;28;20119;-81
2023/12/20 10:07:46;;;;;;;7.75;2.53;;;;;;;;;;10507959;28;20394;-82
2023/12/20 10:13:04;;;;;;;10.73;3.33;;;;;;;;;;10509164;28;20032;-81
2023/12/20 10:18:06;;;;;;;9.52;3.38;;;;;;;;;;10507540;28;20049;-84
2023/12/20 10:23:08;;;;;;;10.98;2.83;;;;;;;;;;10506014;28;20393;-81
2023/12/20 10:28:23;;;;;;;12.75;3.40;;;;;;;;;;10508397;28;20120;-82
2023/12/20 10:33:28;;;;;;;9.82;3.13;;;;;;;;;;10506432;28;20120;-83
2023/12/20 10:38:30;;;;;;;6.82;3.20;;;;;;;;;;10508003;28;20028;-84
2023/12/20 10:43:32;;;;;;;5.78;3.05;;;;;;;;;;10508020;28;20039;-81
2023/12/20 10:48:35;;;;;;;6.88;2.50;;;;;;;;;;10508724;28;20140;-81
2023/12/20 10:53:37;;;;;;;7.82;2.90;;;;;;;;;;10507215;28;20039;-82
2023/12/20 10:58:45;;;;;;;9.10;3.38;;;;;;;;;;10510140;28;20028;-82
2023/12/20 11:03:50;;;;;;;8.88;3.25;;;;;;;;;;10508424;28;20066;-81
2023/12/20 11:09:12;;;;;;;8.68;3.20;;;;;;;;;;10506174;28;20029;-80
2023/12/20 11:14:43;;;;;;;8.80;2.60;;;;;;;;;;10505977;28;20474;-81
2023/12/20 11:19:53;;;;;;;6.13;2.33;;;;;;;;;;10488751;28;20045;-82
2023/12/20 11:24:55;;;;;;;8.13;2.88;;;;;;;;;;10505773;28;20036;-81
2023/12/20 11:29:57;;;;;;;5.15;2.22;;;;;;;;;;10511692;28;20040;-80
2023/12/20 11:34:59;;;;;;;13.63;9.48;;;;;;;;;;10514943;28;20110;-80
2023/12/20 11:40:05;;;;;;;9.20;3.17;;;;;;;;;;10518021;28;20032;-81
2023/12/20 11:45:19;;;;;;;5.65;2.28;;;;;;;;;;10516571;28;20024;-82
2023/12/20 11:50:21;;;;;;;7.50;3.42;;;;;;;;;;10517251;28;20419;-81
2023/12/20 11:55:23;;;;;;;7.07;2.53;;;;;;;;;;10523210;28;20056;-81
2023/12/20 12:00:25;;;;;;;9.18;3.10;;;;;;;;;;10516291;28;20029;-82
2023/12/20 12:05:26;;;;;;;7.75;2.63;;;;;;;;;;10515101;28;20024;-82
2023/12/20 12:10:30;;;;;;;8.25;2.22;;;;;;;;;;10514450;28;20024;-82
2023/12/20 12:15:54;;;;;;;5.95;2.30;;;;;;;;;;10530561;28;20050;-82
2023/12/20 12:21:04;;;;;;;9.25;4.03;;;;;;;;;;10521817;28;20036;-84
2023/12/20 12:26:05;;;;;;;8.43;3.35;;;;;;;;;;10516782;28;20033;-82
2023/12/20 12:31:07;;;;;;;6.13;2.72;;;;;;;;;;10518647;28;20029;-81
2023/12/20 12:36:08;;;;;;;6.35;2.60;;;;;;;;;;10515957;28;20124;-82
2023/12/20 12:41:10;;;;;;;;;;;;;;;;;;10517408;28;20540;-81
2023/12/20 12:46:11;;;;;;;8.95;4.30;;;;;;;;;;10524807;28;19915;-81
2023/12/20 12:51:13;;;;;;;7.78;2.53;;;;;;;;;;10536516;28;20043;-81
2023/12/20 12:56:14;;;;;;;10.45;3.97;;;;;;;;;;10522707;28;20051;-80
2023/12/20 13:01:15;;;;;;;13.18;4.55;;;;;;;;;;10511106;28;20123;-80
2023/12/20 13:06:17;;;;;;;6.15;2.58;;;;;;;;;;10511197;28;20066;-79
2023/12/20 13:11:19;;;;;;;6.32;2.58;;;;;;;;;;10511496;28;20020;-81
2023/12/20 13:16:20;;;;;;;9.73;3.33;;;;;;;;;;10510716;28;20021;-80
2023/12/20 13:21:21;;;;;;;10.48;3.83;;;;;;;;;;10512592;28;20121;-81
2023/12/20 13:26:22;;;;;;;;;;;;;;;;;;10512813;28;20036;-82
2023/12/20 13:31:23;;;;;;;7.43;2.92;;;;;;;;;;10508042;28;20303;-83
2023/12/20 13:36:24;;;;;;;;;;;;;;;;;;10509588;28;20055;-81
2023/12/20 13:41:25;;;;;;;7.15;3.10;;;;;;;;;;10509169;28;19905;-82
2023/12/20 13:46:27;;;;;;;;;;;;;;;;;;10509975;28;20104;-79
2023/12/20 13:51:28;;;;;;;6.95;3.50;;;;;;;;;;10510495;28;20011;-79
2023/12/20 13:56:29;;;;;;;;;;;;;;;;;;10510070;28;20033;-81
2023/12/20 14:01:30;;;;;;;7.57;3.50;;;;;;;;;;10510473;28;20378;-81
2023/12/20 14:06:31;;;;;;;5.18;2.55;;;;;;;;;;10533192;28;20028;-80
2023/12/20 14:11:33;;;;;;;;;;;;;;;;;;10509772;28;20036;-80
2023/12/20 14:16:35;;;;;;;6.53;2.97;;;;;;;;;;10505678;28;20375;-80
2023/12/20 14:21:36;;;;;;;7.20;2.65;;;;;;;;;;10505090;28;20082;-81
2023/12/20 14:26:38;;;;;;;6.57;3.50;;;;;;;;;;10506701;28;20027;-82
2023/12/20 14:31:40;;;;;;;7.57;3.55;;;;;;;;;;10504414;28;20494;-80
2023/12/20 14:36:41;;;;;;;9.60;4.15;;;;;;;;;;10504628;28;20397;-82
2023/12/20 14:41:42;;;;;;;;;;;;;;;;;;10506180;28;20501;-81
2023/12/20 14:46:45;;;;;;;8.85;4.25;;;;;;;;;;10508600;28;19983;-82
2023/12/20 14:52:01;;;;;;;8.65;4.22;;;;;;;;;;10509473;28;20373;-82
2023/12/20 14:57:04;;;;;;;9.15;4.00;;;;;;;;;;10535165;28;20033;-82
2023/12/20 15:02:05;;;;;;;9.13;4.30;;;;;;;;;;10533470;28;20024;-80
2023/12/20 15:07:06;;;;;;;8.50;3.80;;;;;;;;;;10537734;28;20067;-80
2023/12/20 15:12:09;;;;;;;8.15;3.60;;;;;;;;;;10532624;28;20052;-80
2023/12/20 15:17:10;;;;;;;6.55;2.85;;;;;;;;;;10533517;28;20032;-79
2023/12/20 15:22:12;;;;;;;;;;;;;;;;;;10531869;28;20028;-79
2023/12/20 15:27:14;;;;;;;5.38;3.22;;;;;;;;;;10522319;28;19905;-83
2023/12/20 15:32:18;;;;;;;8.95;4.82;;;;;;;;;;10520385;28;20035;-81
2023/12/20 15:37:19;;;;;;;9.82;4.85;;;;;;;;;;10517807;28;20489;-81
2023/12/20 15:42:20;;;;;;;7.68;4.43;;;;;;;;;;10514679;28;20071;-82
2023/12/20 15:47:21;;;;;;;;;;;;;;;;;;10520893;28;20067;-80
2023/12/20 15:52:28;;;;;;;8.65;4.43;;;;;;;;;;10547120;28;19923;-82
2023/12/20 15:57:29;;;;;;;8.75;4.38;;;;;;;;;;10534449;28;20126;-81
2023/12/20 16:02:30;;;;;;;7.90;3.67;;;;;;;;;;10512933;28;20072;-80
2023/12/20 16:07:31;;;;;;;;;;;;;;;;;;10513022;28;20352;-82
2023/12/20 16:12:32;;;;;;;9.60;4.50;;;;;;;;;;10515651;28;19912;-80
2023/12/20 16:17:33;;;;;;;7.43;3.72;;;;;;;;;;10512948;28;20016;-80
2023/12/20 16:22:34;;;;;;;;;;;;;;;;;;10513860;28;20052;-81
2023/12/20 16:27:35;;;;;;;6.35;3.00;;;;;;;;;;10515518;28;20358;-80
2023/12/20 16:32:36;;;;;;;;;;;;;;;;;;10515191;28;20486;-81
2023/12/20 16:37:55;;;;;;;9.10;4.32;;;;;;;;;;10516789;28;19904;-80
2023/12/20 16:42:56;;;;;;;6.28;3.38;;;;;;;;;;10512734;28;20037;-81
2023/12/20 16:47:57;;;;;;;6.75;3.30;;;;;;;;;;10513040;28;20048;-82
2023/12/20 16:53:22;;;;;;;8.45;4.50;;;;;;;;;;10510095;28;20119;-84
2023/12/20 16:58:49;;;;;;;7.35;3.63;;;;;;;;;;10511041;28;20025;-81
2023/12/20 17:03:51;;;;;;;8.70;5.00;;;;;;;;;;10506928;28;20037;-81
2023/12/20 17:09:28;;;;;;;8.40;5.03;;;;;;;;;;10507421;28;20126;-84
2023/12/20 17:14:44;;;;;;;5.45;2.75;;;;;;;;;;10508423;28;20037;-83
2023/12/20 17:19:47;;;;;;;8.32;4.28;;;;;;;;;;10507486;28;20028;-83
2023/12/20 17:24:48;;;;;;;;;;;;;;;;;;10509690;28;20036;-81
2023/12/20 17:29:49;;;;;;;6.70;3.30;;;;;;;;;;10506731;28;19916;-81
2023/12/20 17:34:50;;;;;;;6.97;3.70;;;;;;;;;;10505536;28;20120;-79
2023/12/20 17:39:51;;;;;;;;;;;;;;;;;;10509064;28;20025;-81
2023/12/20 17:44:52;;;;;;;10.45;5.32;;;;;;;;;;10508848;28;19926;-81
2023/12/20 17:49:53;;;;;;;;;;;;;;;;;;10508784;28;20050;-81
2023/12/20 17:54:54;;;;;;;9.35;6.47;;;;;;;;;;10506778;28;19908;-81
2023/12/20 17:59:55;;;;;;;;;;;;;;;;;;10508704;28;20024;-79
2023/12/20 18:04:56;;;;;;;5.68;2.80;;;;;;;;;;10508180;28;19938;-77
2023/12/20 18:09:57;;;;;;;8.20;3.53;;;;;;;;;;10506775;28;20482;-79
2023/12/20 18:14:58;;;;;;;8.95;3.80;;;;;;;;;;10506273;28;20092;-81
2023/12/20 18:19:59;;;;;;;9.85;5.47;;;;;;;;;;10508271;28;20379;-81
2023/12/20 18:25:00;;;;;;;6.50;3.92;;;;;;;;;;10515858;28;20020;-81
2023/12/20 18:30:05;;;;;;;8.90;4.60;;;;;;;;;;10520231;28;20059;-82
2023/12/20 18:35:07;;;;;;;8.25;5.53;;;;;;;;;;10517564;28;20489;-81
2023/12/20 18:40:11;;;;;;;;;;;;;;;;;;10512709;28;20020;-82
2023/12/20 18:45:12;;;;;;;9.23;5.05;;;;;;;;;;10515330;28;19904;-82
2023/12/20 18:50:13;;;;;;;8.35;4.20;;;;;;;;;;10514815;28;20032;-81
2023/12/20 18:55:14;;;;;;;11.75;4.82;;;;;;;;;;10531097;28;20043;-81
2023/12/20 19:00:16;;;;;;;13.02;6.50;;;;;;;;;;10522401;28;20025;-83
2023/12/20 19:05:18;;;;;;;9.95;5.13;;;;;;;;;;10539579;28;20040;-82
2023/12/20 19:10:19;;;;;;;;;;;;;;;;;;10526418;28;20086;-81
2023/12/20 19:15:20;;;;;;;8.65;5.05;;;;;;;;;;10532417;28;19981;-78
2023/12/20 19:20:21;;;;;;;7.15;4.20;;;;;;;;;;10547810;28;20043;-82
2023/12/20 19:25:22;;;;;;;7.60;4.38;;;;;;;;;;10517696;28;20450;-81
2023/12/20 19:30:23;;;;;;;11.48;5.60;;;;;;;;;;10503970;28;20071;-79
2023/12/20 19:35:24;;;;;;;6.22;3.97;;;;;;;;;;10503954;28;20031;-79
2023/12/20 19:40:30;;;;;;;6.45;4.57;;;;;;;;;;10506372;28;20035;-83
2023/12/20 19:45:39;;;;;;;8.10;4.32;;;;;;;;;;10506609;28;20024;-82
2023/12/20 19:50:40;;;;;;;7.25;4.43;;;;;;;;;;10511717;28;20032;-81
2023/12/20 19:55:41;;;;;;;6.68;4.35;;;;;;;;;;10516315;28;20132;-81
2023/12/20 20:00:43;;;;;;;;;;;;;;;;;;10517330;28;20046;-81
2023/12/20 20:05:44;;;;;;;8.27;4.68;;;;;;;;;;10516357;28;19912;-81
